Time;durP1;ratioP1;P1;durP2;ratioP2;P2;SDS_P1;SDS_P2;PMS_P1;PMS_P2;Temp;Humidity;BMP_temperature;BMP_pressure;BME280_temperature;BME280_humidity;BME280_pressure;Samples;Min_cycle;Max_cycle;Signal;HPM_P1;HPM_P2
2023/10/26 00:01:37;;;;;;;25.75;10.27;;;;;;;;;;4983487;28;20621;-68
2023/10/26 00:04:04;;;;;;;48.67;10.75;;;;;;;;;;4980927;28;20038;-68
2023/10/26 00:06:31;;;;;;;47.22;12.55;;;;;;;;;;4985912;28;20050;-68
2023/10/26 00:08:57;;;;;;;41.85;11.48;;;;;;;;;;4983748;28;20043;-67
2023/10/26 00:11:24;;;;;;;41.67;11.57;;;;;;;;;;4983979;28;20053;-67
2023/10/26 00:13:50;;;;;;;32.00;11.23;;;;;;;;;;4981638;28;20477;-68
2023/10/26 00:16:17;;;;;;;62.25;11.88;;;;;;;;;;4982619;28;20082;-67
2023/10/26 00:18:43;;;;;;;50.20;11.75;;;;;;;;;;4984772;28;20046;-68
2023/10/26 00:21:10;;;;;;;73.68;13.05;;;;;;;;;;4982958;28;20514;-70
2023/10/26 00:23:37;;;;;;;47.53;12.50;;;;;;;;;;4982164;28;20376;-68
2023/10/26 00:26:04;;;;;;;39.15;12.07;;;;;;;;;;4965076;28;20047;-69
2023/10/26 00:28:30;;;;;;;57.80;13.52;;;;;;;;;;4979946;28;20489;-70
2023/10/26 00:30:57;;;;;;;36.58;11.93;;;;;;;;;;4986113;28;20046;-70
2023/10/26 00:33:23;;;;;;;93.63;14.85;;;;;;;;;;4982597;28;20094;-68
2023/10/26 00:35:51;;;;;;;54.53;12.77;;;;;;;;;;4964951;28;20101;-69
2023/10/26 00:38:18;;;;;;;71.53;13.95;;;;;;;;;;4971411;28;20038;-67
2023/10/26 00:40:44;;;;;;;55.20;14.40;;;;;;;;;;4979884;28;20068;-68
2023/10/26 00:43:26;;;;;;;52.05;13.90;;;;;;;;;;4968942;28;20518;-69
2023/10/26 00:45:53;;;;;;;55.75;13.82;;;;;;;;;;4968392;28;20055;-69
2023/10/26 00:48:20;;;;;;;96.20;16.02;;;;;;;;;;4964857;28;20491;-69
2023/10/26 00:50:48;;;;;;;60.40;15.52;;;;;;;;;;4962740;28;20053;-68
2023/10/26 00:53:16;;;;;;;47.13;13.77;;;;;;;;;;4982248;28;20117;-68
2023/10/26 00:55:43;;;;;;;50.05;14.63;;;;;;;;;;4965334;28;20058;-67
2023/10/26 00:58:11;;;;;;;58.55;14.85;;;;;;;;;;4982107;28;20495;-67
2023/10/26 01:00:38;;;;;;;52.80;14.45;;;;;;;;;;4963502;28;20042;-68
2023/10/26 01:03:04;;;;;;;48.22;14.20;;;;;;;;;;4984546;28;20049;-68
2023/10/26 01:05:31;;;;;;;46.05;14.13;;;;;;;;;;4981646;28;20051;-67
2023/10/26 01:07:58;;;;;;;57.13;15.32;;;;;;;;;;4982395;28;20047;-67
2023/10/26 01:10:26;;;;;;;45.63;13.85;;;;;;;;;;4981754;28;20054;-68
2023/10/26 01:12:53;;;;;;;74.85;16.15;;;;;;;;;;4972006;28;20062;-69
2023/10/26 01:15:20;;;;;;;88.68;17.45;;;;;;;;;;4980097;28;20535;-68
2023/10/26 01:17:46;;;;;;;57.92;16.63;;;;;;;;;;4979182;28;20499;-67
2023/10/26 01:20:17;;;;;;;52.72;15.48;;;;;;;;;;4964831;28;20141;-67
2023/10/26 01:22:43;;;;;;;61.72;15.90;;;;;;;;;;4966001;28;20496;-67
2023/10/26 01:25:11;;;;;;;58.33;15.00;;;;;;;;;;4981253;28;20453;-69
2023/10/26 01:27:38;;;;;;;90.50;17.48;;;;;;;;;;4965103;28;20701;-68
2023/10/26 01:30:05;;;;;;;55.15;14.68;;;;;;;;;;4980928;28;20148;-68
2023/10/26 01:32:33;;;;;;;47.80;14.48;;;;;;;;;;4965733;28;20514;-68
2023/10/26 01:34:59;;;;;;;57.65;14.80;;;;;;;;;;4981570;28;20049;-68
2023/10/26 01:37:26;;;;;;;57.20;15.30;;;;;;;;;;4966143;28;20404;-69
2023/10/26 01:39:52;;;;;;;44.78;13.88;;;;;;;;;;4986573;28;20479;-67
2023/10/26 01:42:19;;;;;;;90.03;17.45;;;;;;;;;;4981723;28;20054;-69
2023/10/26 01:44:46;;;;;;;65.07;15.38;;;;;;;;;;4980539;28;20047;-68
2023/10/26 01:47:13;;;;;;;58.47;15.50;;;;;;;;;;4971167;28;20050;-68
2023/10/26 01:49:39;;;;;;;55.95;14.98;;;;;;;;;;4974657;28;20046;-69
2023/10/26 01:52:06;;;;;;;49.13;14.80;;;;;;;;;;4986685;28;20100;-68
2023/10/26 01:54:33;;;;;;;62.45;15.95;;;;;;;;;;4986353;28;20122;-68
2023/10/26 01:56:59;;;;;;;48.70;14.25;;;;;;;;;;4969570;28;20046;-68
2023/10/26 01:59:26;;;;;;;51.60;13.98;;;;;;;;;;4986201;28;20056;-67
2023/10/26 02:01:53;;;;;;;139.50;19.55;;;;;;;;;;5013941;23;20065;-67
2023/10/26 02:04:20;;;;;;;62.53;15.15;;;;;;;;;;4972122;28;20039;-66
2023/10/26 02:06:46;;;;;;;49.00;12.60;;;;;;;;;;4972077;28;20042;-66
2023/10/26 02:09:13;;;;;;;77.13;15.45;;;;;;;;;;4968184;28;20066;-65
2023/10/26 02:11:40;;;;;;;49.95;14.73;;;;;;;;;;4956209;28;20081;-66
2023/10/26 02:14:07;;;;;;;71.47;14.80;;;;;;;;;;4968994;28;20047;-64
2023/10/26 02:16:33;;;;;;;56.60;13.63;;;;;;;;;;4952128;28;20050;-65
2023/10/26 02:19:00;;;;;;;51.33;13.45;;;;;;;;;;4969425;28;20056;-65
2023/10/26 02:21:27;;;;;;;71.72;16.73;;;;;;;;;;4968457;28;20214;-64
2023/10/26 02:23:53;;;;;;;44.38;14.13;;;;;;;;;;4971732;28;20051;-65
2023/10/26 02:26:20;;;;;;;53.15;14.13;;;;;;;;;;4954316;28;20572;-66
2023/10/26 02:28:46;;;;;;;37.47;13.65;;;;;;;;;;4949954;28;20058;-65
2023/10/26 02:31:14;;;;;;;57.72;16.58;;;;;;;;;;4969373;28;20039;-64
2023/10/26 02:33:40;;;;;;;52.03;14.38;;;;;;;;;;4959858;28;20043;-65
2023/10/26 02:36:08;;;;;;;43.90;13.20;;;;;;;;;;4965371;28;20051;-67
2023/10/26 02:38:35;;;;;;;55.38;15.48;;;;;;;;;;4972298;28;20046;-64
2023/10/26 02:41:05;;;;;;;42.03;13.85;;;;;;;;;;4969632;28;20058;-65
2023/10/26 02:43:31;;;;;;;56.72;15.20;;;;;;;;;;4950488;28;20057;-65
2023/10/26 02:46:04;;;;;;;49.08;15.45;;;;;;;;;;4968737;28;20055;-64
2023/10/26 02:48:31;;;;;;;51.03;14.60;;;;;;;;;;4959014;28;20055;-66
2023/10/26 02:50:58;;;;;;;45.53;14.23;;;;;;;;;;4964193;28;20047;-65
2023/10/26 02:53:24;;;;;;;37.15;14.55;;;;;;;;;;4968237;28;20054;-64
2023/10/26 02:55:52;;;;;;;53.13;15.35;;;;;;;;;;4966958;28;20381;-65
2023/10/26 02:58:18;;;;;;;45.50;15.60;;;;;;;;;;4965407;28;20488;-64
2023/10/26 03:00:45;;;;;;;54.83;16.77;;;;;;;;;;4949389;28;20043;-65
2023/10/26 03:03:12;;;;;;;74.60;17.52;;;;;;;;;;4964719;28;20059;-65
2023/10/26 03:05:39;;;;;;;67.55;17.45;;;;;;;;;;4964323;28;20046;-67
2023/10/26 03:08:06;;;;;;;39.28;14.80;;;;;;;;;;4964843;28;20378;-65
2023/10/26 03:10:32;;;;;;;65.85;17.33;;;;;;;;;;4946486;28;20050;-66
2023/10/26 03:12:59;;;;;;;46.13;16.30;;;;;;;;;;4969045;28;20054;-65
2023/10/26 03:15:26;;;;;;;105.18;21.35;;;;;;;;;;4947975;28;20051;-65
2023/10/26 03:18:00;;;;;;;60.20;17.42;;;;;;;;;;4964437;28;20044;-66
2023/10/26 03:20:26;;;;;;;51.60;18.30;;;;;;;;;;4964919;28;20193;-65
2023/10/26 03:22:53;;;;;;;54.15;17.52;;;;;;;;;;4946722;28;20156;-65
2023/10/26 03:25:20;;;;;;;61.63;18.02;;;;;;;;;;4967039;28;20068;-66
2023/10/26 03:27:47;;;;;;;65.82;17.95;;;;;;;;;;4963299;28;20085;-65
2023/10/26 03:30:13;;;;;;;84.03;18.73;;;;;;;;;;4963181;28;20577;-65
2023/10/26 03:32:40;;;;;;;57.83;17.83;;;;;;;;;;4964122;28;20051;-65
2023/10/26 03:35:08;;;;;;;51.15;17.83;;;;;;;;;;4965319;28;20081;-65
2023/10/26 03:37:36;;;;;;;68.00;19.58;;;;;;;;;;4964921;28;20130;-66
2023/10/26 03:40:04;;;;;;;58.10;18.75;;;;;;;;;;4945750;28;20050;-66
2023/10/26 03:42:31;;;;;;;64.72;18.42;;;;;;;;;;4965371;28;20113;-66
2023/10/26 03:44:57;;;;;;;65.10;18.42;;;;;;;;;;4963827;28;20192;-66
2023/10/26 03:47:24;;;;;;;62.67;18.67;;;;;;;;;;4946790;28;20039;-66
2023/10/26 03:49:52;;;;;;;49.80;18.67;;;;;;;;;;4964579;28;20039;-66
2023/10/26 03:52:21;;;;;;;65.32;19.95;;;;;;;;;;4963770;28;20050;-64
2023/10/26 03:54:49;;;;;;;59.25;18.85;;;;;;;;;;4964268;28;20047;-65
2023/10/26 03:57:16;;;;;;;93.82;21.98;;;;;;;;;;4947140;28;20054;-70
2023/10/26 03:59:43;;;;;;;53.70;17.55;;;;;;;;;;4964369;28;20155;-65
2023/10/26 04:02:10;;;;;;;54.58;18.88;;;;;;;;;;4951591;28;20722;-66
2023/10/26 04:04:38;;;;;;;69.50;19.58;;;;;;;;;;4939746;28;20050;-65
2023/10/26 04:07:05;;;;;;;57.08;19.13;;;;;;;;;;4961351;28;20417;-65
2023/10/26 04:09:31;;;;;;;63.47;18.88;;;;;;;;;;4946695;28;20074;-65
2023/10/26 04:11:58;;;;;;;51.67;17.77;;;;;;;;;;4962660;28;20425;-67
2023/10/26 04:14:25;;;;;;;78.00;20.00;;;;;;;;;;4962706;28;20035;-64
2023/10/26 04:16:52;;;;;;;57.08;19.02;;;;;;;;;;4966707;28;20050;-66
2023/10/26 04:19:19;;;;;;;67.18;21.00;;;;;;;;;;4963081;28;20481;-65
2023/10/26 04:21:45;;;;;;;49.90;17.63;;;;;;;;;;4964657;28;20057;-65
2023/10/26 04:24:12;;;;;;;52.78;16.42;;;;;;;;;;4963650;28;20055;-70
2023/10/26 04:26:39;;;;;;;52.05;18.50;;;;;;;;;;4952232;28;20078;-66
2023/10/26 04:29:05;;;;;;;61.83;18.73;;;;;;;;;;4964643;28;20046;-65
2023/10/26 04:31:34;;;;;;;60.38;17.85;;;;;;;;;;4964052;28;20081;-65
2023/10/26 04:34:01;;;;;;;77.45;19.85;;;;;;;;;;4965723;28;20046;-66
2023/10/26 04:36:27;;;;;;;97.28;19.58;;;;;;;;;;4945025;28;20047;-65
2023/10/26 04:38:54;;;;;;;44.90;18.95;;;;;;;;;;4963130;28;20057;-65
2023/10/26 04:41:21;;;;;;;68.10;20.00;;;;;;;;;;4963468;28;20050;-65
2023/10/26 04:43:47;;;;;;;47.05;18.95;;;;;;;;;;4963081;28;20502;-65
2023/10/26 04:46:14;;;;;;;54.58;18.63;;;;;;;;;;4961943;28;20047;-67
2023/10/26 04:48:41;;;;;;;57.63;19.67;;;;;;;;;;4963779;28;20110;-69
2023/10/26 04:51:08;;;;;;;61.65;19.52;;;;;;;;;;4963591;28;20479;-64
2023/10/26 04:53:35;;;;;;;52.83;20.35;;;;;;;;;;4961438;28;20552;-65
2023/10/26 04:56:02;;;;;;;59.47;18.98;;;;;;;;;;4966009;28;20090;-64
2023/10/26 04:58:29;;;;;;;66.95;20.95;;;;;;;;;;4963548;28;20569;-65
2023/10/26 05:00:56;;;;;;;66.53;22.17;;;;;;;;;;4963788;28;20047;-65
2023/10/26 05:03:22;;;;;;;112.97;22.33;;;;;;;;;;4962980;28;20061;-64
2023/10/26 05:05:49;;;;;;;36.20;18.13;;;;;;;;;;4938095;28;20103;-66
2023/10/26 05:08:16;;;;;;;54.53;19.70;;;;;;;;;;4963905;28;20128;-65
2023/10/26 05:10:43;;;;;;;67.35;20.88;;;;;;;;;;4962962;28;20117;-64
2023/10/26 05:13:10;;;;;;;60.20;18.48;;;;;;;;;;4945337;28;20051;-66
2023/10/26 05:15:37;;;;;;;64.07;20.20;;;;;;;;;;4968205;28;20047;-66
2023/10/26 05:18:04;;;;;;;55.85;19.63;;;;;;;;;;4964402;28;20176;-65
2023/10/26 05:20:32;;;;;;;53.30;19.48;;;;;;;;;;4965935;28;20043;-65
2023/10/26 05:22:59;;;;;;;63.60;18.98;;;;;;;;;;4952833;28;20067;-67
2023/10/26 05:25:26;;;;;;;85.65;19.67;;;;;;;;;;4965884;28;20039;-65
2023/10/26 05:27:53;;;;;;;68.25;19.83;;;;;;;;;;4967097;28;20038;-65
2023/10/26 05:30:19;;;;;;;85.10;20.38;;;;;;;;;;4966951;28;20049;-65
2023/10/26 05:32:46;;;;;;;43.28;18.45;;;;;;;;;;4948474;28;20062;-65
2023/10/26 05:35:14;;;;;;;42.60;18.02;;;;;;;;;;4969483;28;20539;-66
2023/10/26 05:37:40;;;;;;;53.60;20.13;;;;;;;;;;4965261;28;20400;-64
2023/10/26 05:40:08;;;;;;;60.90;19.58;;;;;;;;;;4968861;28;20460;-65
2023/10/26 05:42:35;;;;;;;80.20;21.60;;;;;;;;;;4949379;28;20076;-64
2023/10/26 05:45:02;;;;;;;62.83;19.75;;;;;;;;;;4950410;28;20043;-65
2023/10/26 05:47:29;;;;;;;80.63;20.10;;;;;;;;;;4949875;28;20058;-64
2023/10/26 05:49:56;;;;;;;52.83;18.42;;;;;;;;;;4968455;28;20047;-65
2023/10/26 05:52:23;;;;;;;75.45;21.15;;;;;;;;;;4971956;28;20493;-67
2023/10/26 05:54:52;;;;;;;80.20;21.55;;;;;;;;;;4971728;28;20322;-66
2023/10/26 05:57:19;;;;;;;80.20;20.48;;;;;;;;;;4956224;28;20046;-67
2023/10/26 05:59:49;;;;;;;51.13;18.58;;;;;;;;;;4963489;28;20054;-66
2023/10/26 06:02:16;;;;;;;46.75;17.85;;;;;;;;;;4969834;28;20428;-65
2023/10/26 06:04:42;;;;;;;79.13;19.65;;;;;;;;;;4965127;28;20043;-65
2023/10/26 06:07:09;;;;;;;62.90;18.98;;;;;;;;;;4969379;28;20049;-68
2023/10/26 06:09:36;;;;;;;62.08;19.98;;;;;;;;;;4966803;28;20498;-64
2023/10/26 06:12:03;;;;;;;48.53;18.73;;;;;;;;;;4968752;28;20039;-65
2023/10/26 06:14:29;;;;;;;65.03;21.42;;;;;;;;;;4967808;28;20122;-67
2023/10/26 06:16:56;;;;;;;50.63;18.65;;;;;;;;;;4962424;28;20600;-65
2023/10/26 06:19:22;;;;;;;55.08;18.63;;;;;;;;;;4967635;28;20031;-66
2023/10/26 06:21:49;;;;;;;38.22;16.40;;;;;;;;;;4965798;28;20049;-65
2023/10/26 06:24:16;;;;;;;75.57;19.60;;;;;;;;;;4964484;28;20682;-65
2023/10/26 06:26:42;;;;;;;54.83;17.45;;;;;;;;;;4965403;28;20507;-65
2023/10/26 06:29:09;;;;;;;54.72;18.02;;;;;;;;;;4965310;28;20078;-65
2023/10/26 06:31:36;;;;;;;40.28;16.70;;;;;;;;;;4964518;28;20072;-65
2023/10/26 06:34:02;;;;;;;48.60;16.13;;;;;;;;;;4967139;28;20051;-65
2023/10/26 06:36:29;;;;;;;93.03;19.70;;;;;;;;;;4965801;28;20050;-67
2023/10/26 06:38:56;;;;;;;46.83;15.45;;;;;;;;;;4962112;28;20058;-65
2023/10/26 06:41:23;;;;;;;49.80;16.90;;;;;;;;;;4967426;28;20137;-64
2023/10/26 06:43:50;;;;;;;46.58;17.65;;;;;;;;;;4963311;28;20054;-65
2023/10/26 06:46:16;;;;;;;41.45;14.93;;;;;;;;;;4968006;28;20046;-65
2023/10/26 06:48:43;;;;;;;51.63;15.65;;;;;;;;;;4964906;28;20051;-67
2023/10/26 06:51:09;;;;;;;43.63;16.75;;;;;;;;;;4964410;28;20047;-66
2023/10/26 06:53:36;;;;;;;46.40;16.10;;;;;;;;;;4967439;28;20061;-67
2023/10/26 06:56:10;;;;;;;47.00;15.38;;;;;;;;;;4964195;28;20054;-65
2023/10/26 06:58:37;;;;;;;33.15;14.32;;;;;;;;;;4959683;28;20034;-65
2023/10/26 07:01:07;;;;;;;40.92;14.75;;;;;;;;;;4965765;28;20089;-65
2023/10/26 07:03:50;;;;;;;47.03;16.20;;;;;;;;;;4965332;28;20110;-66
2023/10/26 07:06:18;;;;;;;73.40;18.55;;;;;;;;;;4964215;28;20057;-64
2023/10/26 07:08:44;;;;;;;48.10;17.25;;;;;;;;;;4965332;28;20051;-65
2023/10/26 07:11:11;;;;;;;42.55;15.57;;;;;;;;;;4964056;28;20047;-66
2023/10/26 07:13:38;;;;;;;62.33;17.13;;;;;;;;;;4967785;28;20431;-65
2023/10/26 07:16:05;;;;;;;39.63;16.10;;;;;;;;;;4965561;28;20042;-65
2023/10/26 07:18:32;;;;;;;76.32;17.92;;;;;;;;;;4964477;28;20067;-66
2023/10/26 07:21:04;;;;;;;74.13;17.88;;;;;;;;;;4964312;28;20192;-66
2023/10/26 07:23:30;;;;;;;45.78;16.40;;;;;;;;;;4963557;28;20038;-65
2023/10/26 07:25:57;;;;;;;51.05;17.27;;;;;;;;;;4965786;28;20513;-64
2023/10/26 07:28:24;;;;;;;53.88;17.15;;;;;;;;;;4964375;28;20039;-67
2023/10/26 07:30:51;;;;;;;43.30;17.73;;;;;;;;;;4963947;28;20046;-65
2023/10/26 07:33:19;;;;;;;59.22;16.90;;;;;;;;;;4964682;28;20047;-65
2023/10/26 07:35:53;;;;;;;33.95;15.13;;;;;;;;;;4962060;28;20043;-65
2023/10/26 07:38:19;;;;;;;34.72;14.68;;;;;;;;;;4964146;28;20047;-66
2023/10/26 07:41:03;;;;;;;35.97;14.52;;;;;;;;;;4964336;28;20055;-66
2023/10/26 07:43:31;;;;;;;46.05;16.85;;;;;;;;;;4963128;28;20493;-65
2023/10/26 07:45:58;;;;;;;45.13;15.63;;;;;;;;;;4953872;28;20047;-65
2023/10/26 07:48:25;;;;;;;74.35;16.63;;;;;;;;;;4964338;28;20166;-67
2023/10/26 07:50:52;;;;;;;35.88;14.23;;;;;;;;;;4961407;28;20082;-66
2023/10/26 07:53:19;;;;;;;42.30;13.90;;;;;;;;;;4937029;28;20135;-65
2023/10/26 07:55:46;;;;;;;60.60;15.07;;;;;;;;;;4965663;28;20047;-65
2023/10/26 07:58:14;;;;;;;35.42;14.13;;;;;;;;;;4965426;28;20043;-65
2023/10/26 08:00:41;;;;;;;41.67;14.23;;;;;;;;;;4946486;28;20046;-66
2023/10/26 08:03:09;;;;;;;50.30;14.77;;;;;;;;;;4962752;28;20065;-64
2023/10/26 08:05:35;;;;;;;34.30;13.65;;;;;;;;;;4965075;28;20086;-66
2023/10/26 08:08:02;;;;;;;36.35;14.18;;;;;;;;;;4937960;28;20043;-67
2023/10/26 08:10:35;;;;;;;55.35;14.13;;;;;;;;;;4953518;28;20600;-68
2023/10/26 08:13:03;;;;;;;36.00;13.23;;;;;;;;;;4963816;28;20054;-65
2023/10/26 08:15:29;;;;;;;83.22;16.95;;;;;;;;;;4948965;28;20327;-67
2023/10/26 08:18:16;;;;;;;38.22;12.90;;;;;;;;;;4963975;28;20133;-69
2023/10/26 08:20:48;;;;;;;51.78;13.23;;;;;;;;;;4950097;28;20467;-64
2023/10/26 08:23:33;;;;;;;47.10;13.75;;;;;;;;;;4955064;28;20061;-65
2023/10/26 08:26:10;;;;;;;44.90;14.20;;;;;;;;;;4965004;28;20043;-65
2023/10/26 08:28:36;;;;;;;50.10;14.98;;;;;;;;;;4962556;28;20130;-65
2023/10/26 08:31:04;;;;;;;42.00;12.85;;;;;;;;;;4966030;28;20051;-66
2023/10/26 08:33:31;;;;;;;82.75;15.25;;;;;;;;;;4954321;28;20034;-65
2023/10/26 08:35:57;;;;;;;38.85;12.45;;;;;;;;;;4964727;28;20122;-66
2023/10/26 08:38:25;;;;;;;28.15;13.13;;;;;;;;;;4965509;28;20129;-67
2023/10/26 08:40:52;;;;;;;53.25;12.93;;;;;;;;;;4953464;28;20053;-67
2023/10/26 08:43:19;;;;;;;42.13;13.35;;;;;;;;;;4962854;28;20039;-65
2023/10/26 08:45:47;;;;;;;37.80;12.75;;;;;;;;;;4947253;28;20046;-66
2023/10/26 08:48:15;;;;;;;27.05;11.18;;;;;;;;;;4949599;28;20533;-71
2023/10/26 08:50:42;;;;;;;40.90;11.30;;;;;;;;;;4946863;28;20505;-66
2023/10/26 08:53:09;;;;;;;32.85;11.25;;;;;;;;;;4964168;28;20046;-65
2023/10/26 08:55:40;;;;;;;55.10;12.50;;;;;;;;;;4969033;28;20575;-65
2023/10/26 08:58:07;;;;;;;24.83;10.38;;;;;;;;;;4945946;28;20034;-65
2023/10/26 09:00:38;;;;;;;68.63;13.13;;;;;;;;;;4963280;28;20059;-61
2023/10/26 09:03:05;;;;;;;38.55;11.88;;;;;;;;;;4954530;28;20417;-65
2023/10/26 09:05:49;;;;;;;30.33;11.50;;;;;;;;;;4966213;28;20047;-65
2023/10/26 09:08:19;;;;;;;50.03;12.15;;;;;;;;;;4963863;28;20051;-65
2023/10/26 09:10:46;;;;;;;42.55;11.38;;;;;;;;;;4965489;28;20543;-65
2023/10/26 09:13:21;;;;;;;22.63;11.02;;;;;;;;;;4962720;28;20043;-65
2023/10/26 09:15:49;;;;;;;39.38;11.68;;;;;;;;;;4960210;28;20039;-65
2023/10/26 09:18:15;;;;;;;30.55;11.68;;;;;;;;;;4962841;28;20056;-68
2023/10/26 09:20:43;;;;;;;41.78;12.13;;;;;;;;;;4963528;28;20051;-65
2023/10/26 09:23:26;;;;;;;28.73;11.05;;;;;;;;;;4960212;28;20051;-68
2023/10/26 09:25:59;;;;;;;44.75;12.65;;;;;;;;;;4959960;28;20126;-66
2023/10/26 09:28:26;;;;;;;;;;;;;;;;;;4946129;28;20031;-66
2023/10/26 09:30:57;;;;;;;47.20;11.82;;;;;;;;;;4963427;28;19922;-66
2023/10/26 09:33:24;;;;;;;65.10;13.38;;;;;;;;;;4946449;28;20042;-66
2023/10/26 09:35:52;;;;;;;35.83;12.15;;;;;;;;;;4960287;28;20051;-68
2023/10/26 09:38:39;;;;;;;33.33;11.68;;;;;;;;;;4952719;28;20130;-69
2023/10/26 09:41:11;;;;;;;36.55;12.43;;;;;;;;;;4960325;28;20047;-68
2023/10/26 09:43:40;;;;;;;35.53;12.60;;;;;;;;;;4964839;28;20097;-68
2023/10/26 09:46:09;;;;;;;40.63;12.73;;;;;;;;;;4944910;28;20050;-68
2023/10/26 09:48:37;;;;;;;63.50;12.82;;;;;;;;;;4962301;28;20514;-67
2023/10/26 09:51:04;;;;;;;30.17;12.20;;;;;;;;;;4963545;28;20043;-67
2023/10/26 09:53:36;;;;;;;43.90;11.75;;;;;;;;;;4960193;28;20134;-66
2023/10/26 09:56:04;;;;;;;33.65;11.23;;;;;;;;;;4931012;28;20078;-67
2023/10/26 09:58:35;;;;;;;41.33;12.60;;;;;;;;;;4947599;28;20055;-67
2023/10/26 10:01:22;;;;;;;39.88;12.55;;;;;;;;;;4965683;28;20130;-66
2023/10/26 10:03:48;;;;;;;51.13;12.55;;;;;;;;;;4965305;28;20105;-65
2023/10/26 10:06:34;;;;;;;33.45;11.40;;;;;;;;;;4965051;28;20055;-69
2023/10/26 10:09:01;;;;;;;145.05;20.00;;;;;;;;;;4964321;28;20520;-65
2023/10/26 10:11:28;;;;;;;66.60;13.40;;;;;;;;;;4951095;28;20094;-62
2023/10/26 10:13:54;;;;;;;33.70;12.00;;;;;;;;;;4964327;28;20043;-63
2023/10/26 10:16:33;;;;;;;52.97;14.80;;;;;;;;;;4951683;28;20046;-62
2023/10/26 10:19:16;;;;;;;60.05;15.05;;;;;;;;;;4950471;28;20485;-69
2023/10/26 10:21:43;;;;;;;43.40;14.05;;;;;;;;;;4966482;28;20053;-63
2023/10/26 10:24:09;;;;;;;30.63;11.50;;;;;;;;;;4966263;28;20493;-68
2023/10/26 10:26:55;;;;;;;39.70;12.15;;;;;;;;;;4949801;28;20413;-64
2023/10/26 10:29:21;;;;;;;62.00;15.15;;;;;;;;;;4965473;28;20039;-65
2023/10/26 10:31:48;;;;;;;39.60;13.35;;;;;;;;;;4967724;28;20086;-65
2023/10/26 10:34:19;;;;;;;35.40;11.70;;;;;;;;;;4966243;28;20045;-64
2023/10/26 10:37:04;;;;;;;52.38;14.43;;;;;;;;;;4966204;28;20049;-63
2023/10/26 10:39:31;;;;;;;82.03;15.68;;;;;;;;;;4950019;28;20118;-65
2023/10/26 10:41:58;;;;;;;49.20;13.90;;;;;;;;;;4946488;28;20382;-65
2023/10/26 10:44:25;;;;;;;48.88;14.13;;;;;;;;;;4969474;28;20047;-62
2023/10/26 10:46:51;;;;;;;52.17;13.88;;;;;;;;;;4961525;28;20054;-65
2023/10/26 10:49:23;;;;;;;39.22;12.43;;;;;;;;;;4968948;28;20133;-63
2023/10/26 10:51:50;;;;;;;39.33;13.10;;;;;;;;;;4933011;28;20050;-65
2023/10/26 10:54:20;;;;;;;30.10;11.93;;;;;;;;;;4963365;28;20043;-66
2023/10/26 10:57:07;;;;;;;37.83;12.38;;;;;;;;;;4968690;28;20130;-64
2023/10/26 10:59:33;;;;;;;52.75;13.80;;;;;;;;;;4965739;28;20058;-65
2023/10/26 11:02:10;;;;;;;51.90;13.95;;;;;;;;;;4965571;28;20481;-63
2023/10/26 11:04:55;;;;;;;46.20;13.13;;;;;;;;;;4928601;28;20055;-63
2023/10/26 11:07:35;;;;;;;41.75;13.10;;;;;;;;;;4966994;28;20049;-63
2023/10/26 11:10:02;;;;;;;42.90;12.80;;;;;;;;;;4951591;28;20053;-63
2023/10/26 11:12:29;;;;;;;79.32;15.57;;;;;;;;;;4964398;28;20042;-65
2023/10/26 11:14:56;;;;;;;35.72;12.48;;;;;;;;;;4963032;28;20047;-62
2023/10/26 11:17:24;;;;;;;49.10;13.85;;;;;;;;;;4964207;28;20046;-63
2023/10/26 11:19:51;;;;;;;49.85;12.95;;;;;;;;;;4962032;28;20413;-63
2023/10/26 11:22:18;;;;;;;30.98;12.27;;;;;;;;;;4966961;28;20070;-63
2023/10/26 11:24:45;;;;;;;38.30;12.93;;;;;;;;;;4964062;28;20062;-63
2023/10/26 11:27:13;;;;;;;50.55;13.88;;;;;;;;;;4965663;28;20121;-64
2023/10/26 11:29:40;;;;;;;27.15;12.02;;;;;;;;;;4949296;28;20054;-64
2023/10/26 11:32:33;;;;;;;35.30;12.73;;;;;;;;;;4964087;28;20051;-62
2023/10/26 11:35:03;;;;;;;36.45;11.95;;;;;;;;;;4946872;29;20061;-63
2023/10/26 11:37:30;;;;;;;46.45;13.10;;;;;;;;;;4961620;28;20051;-64
2023/10/26 11:39:57;;;;;;;72.38;15.25;;;;;;;;;;4963837;28;20043;-63
2023/10/26 11:42:42;;;;;;;67.57;16.90;;;;;;;;;;4965464;28;20055;-66
2023/10/26 11:45:09;;;;;;;60.13;15.57;;;;;;;;;;4961259;28;20058;-63
2023/10/26 11:47:50;;;;;;;42.17;14.50;;;;;;;;;;4966169;28;20051;-62
2023/10/26 11:50:21;;;;;;;48.63;14.38;;;;;;;;;;4951601;28;20070;-62
2023/10/26 11:52:48;;;;;;;42.63;15.82;;;;;;;;;;4961175;28;20042;-62
2023/10/26 11:55:15;;;;;;;46.55;16.52;;;;;;;;;;4955360;28;20411;-62
2023/10/26 11:57:41;;;;;;;72.78;18.50;;;;;;;;;;4964434;28;20042;-62
2023/10/26 12:00:09;;;;;;;46.25;18.40;;;;;;;;;;4956062;28;20051;-64
2023/10/26 12:02:39;;;;;;;58.53;20.48;;;;;;;;;;4954842;28;20070;-64
2023/10/26 12:05:06;;;;;;;67.47;20.85;;;;;;;;;;4966692;28;20042;-62
2023/10/26 12:07:33;;;;;;;49.45;19.90;;;;;;;;;;4949653;28;20074;-62
2023/10/26 12:10:01;;;;;;;73.25;23.60;;;;;;;;;;4946698;28;20059;-63
2023/10/26 12:12:27;;;;;;;70.70;20.02;;;;;;;;;;4961202;28;20073;-62
2023/10/26 12:14:54;;;;;;;51.33;17.40;;;;;;;;;;4963296;28;20058;-63
2023/10/26 12:17:21;;;;;;;44.35;15.75;;;;;;;;;;4962409;28;20412;-65
2023/10/26 12:19:47;;;;;;;57.22;17.20;;;;;;;;;;4961708;28;20047;-62
2023/10/26 12:22:14;;;;;;;45.55;14.98;;;;;;;;;;4963158;28;20496;-63
2023/10/26 12:24:41;;;;;;;41.35;15.85;;;;;;;;;;4963872;28;20051;-63
2023/10/26 12:27:07;;;;;;;55.95;15.52;;;;;;;;;;4963395;28;20047;-63
2023/10/26 12:29:34;;;;;;;37.97;13.27;;;;;;;;;;4966437;28;20121;-63
2023/10/26 12:32:01;;;;;;;45.38;14.80;;;;;;;;;;4959609;28;20050;-62
2023/10/26 12:34:28;;;;;;;55.80;14.10;;;;;;;;;;4962398;28;20035;-62
2023/10/26 12:36:54;;;;;;;46.13;14.23;;;;;;;;;;4947012;28;20062;-63
2023/10/26 12:39:21;;;;;;;50.63;14.52;;;;;;;;;;4954704;28;20039;-64
2023/10/26 12:41:48;;;;;;;39.47;14.00;;;;;;;;;;4965230;28;20047;-63
2023/10/26 12:44:16;;;;;;;42.08;13.98;;;;;;;;;;4961232;28;20043;-63
2023/10/26 12:46:42;;;;;;;37.88;13.68;;;;;;;;;;4964721;28;20049;-63
2023/10/26 12:49:09;;;;;;;44.28;14.02;;;;;;;;;;4962355;28;20580;-65
2023/10/26 12:51:36;;;;;;;74.15;14.77;;;;;;;;;;4962107;28;20065;-63
2023/10/26 12:54:07;;;;;;;38.17;13.88;;;;;;;;;;4945515;28;20130;-62
2023/10/26 12:56:36;;;;;;;41.90;13.75;;;;;;;;;;4966061;28;20069;-63
2023/10/26 12:59:03;;;;;;;33.65;13.25;;;;;;;;;;4959620;28;20043;-62
2023/10/26 13:01:29;;;;;;;31.17;12.90;;;;;;;;;;4963036;28;20114;-62
2023/10/26 13:03:56;;;;;;;97.45;16.25;;;;;;;;;;4964762;28;20043;-63
2023/10/26 13:06:24;;;;;;;64.57;14.25;;;;;;;;;;4961761;28;20125;-62
2023/10/26 13:08:51;;;;;;;46.95;13.57;;;;;;;;;;4962578;28;20390;-63
2023/10/26 13:11:18;;;;;;;42.00;13.73;;;;;;;;;;4963592;28;20038;-62
2023/10/26 13:13:44;;;;;;;35.70;12.77;;;;;;;;;;4965522;28;20039;-64
2023/10/26 13:16:11;;;;;;;35.25;12.50;;;;;;;;;;4962732;28;20049;-64
2023/10/26 13:18:38;;;;;;;60.28;14.20;;;;;;;;;;4962682;28;20482;-64
2023/10/26 13:21:08;;;;;;;34.38;11.93;;;;;;;;;;4963031;28;20544;-63
2023/10/26 13:23:34;;;;;;;40.95;11.68;;;;;;;;;;4961421;28;20043;-64
2023/10/26 13:26:01;;;;;;;42.42;12.20;;;;;;;;;;4963144;28;20046;-63
2023/10/26 13:28:27;;;;;;;39.72;11.40;;;;;;;;;;4963174;28;20045;-64
2023/10/26 13:30:54;;;;;;;39.03;11.75;;;;;;;;;;4944695;28;20073;-63
2023/10/26 13:33:21;;;;;;;68.65;12.77;;;;;;;;;;4962402;28;20408;-63
2023/10/26 13:35:47;;;;;;;29.67;10.40;;;;;;;;;;4957987;28;20047;-63
2023/10/26 13:38:14;;;;;;;36.70;11.55;;;;;;;;;;4965112;28;20035;-63
2023/10/26 13:40:42;;;;;;;35.03;12.63;;;;;;;;;;4969790;28;20266;-66
2023/10/26 13:43:15;;;;;;;77.65;15.13;;;;;;;;;;4963149;28;20066;-63
2023/10/26 13:45:42;;;;;;;52.35;12.48;;;;;;;;;;4952008;28;20501;-63
2023/10/26 13:48:09;;;;;;;55.13;13.30;;;;;;;;;;4969596;28;20536;-64
2023/10/26 13:50:41;;;;;;;32.50;11.43;;;;;;;;;;4964925;28;20049;-63
2023/10/26 13:53:13;;;;;;;40.75;12.43;;;;;;;;;;4971534;28;20125;-64
2023/10/26 13:55:39;;;;;;;38.58;11.32;;;;;;;;;;4933577;28;20047;-64
2023/10/26 13:58:06;;;;;;;43.78;13.07;;;;;;;;;;4966761;28;20397;-65
2023/10/26 14:00:36;;;;;;;61.90;12.88;;;;;;;;;;4967076;28;20047;-63
2023/10/26 14:03:03;;;;;;;35.97;12.43;;;;;;;;;;4962887;28;20493;-63
2023/10/26 14:05:30;;;;;;;46.90;13.00;;;;;;;;;;4966881;28;20039;-64
2023/10/26 14:07:57;;;;;;;38.83;12.68;;;;;;;;;;4965728;28;20043;-64
2023/10/26 14:10:25;;;;;;;39.70;13.45;;;;;;;;;;4966584;28;20042;-65
2023/10/26 14:12:52;;;;;;;48.28;14.43;;;;;;;;;;4968998;28;20049;-64
2023/10/26 14:15:19;;;;;;;36.25;13.73;;;;;;;;;;4963950;28;20071;-63
2023/10/26 14:17:46;;;;;;;43.88;13.93;;;;;;;;;;4962677;28;20058;-63
2023/10/26 14:20:12;;;;;;;32.72;12.77;;;;;;;;;;4969008;28;20548;-63
2023/10/26 14:22:39;;;;;;;36.47;13.35;;;;;;;;;;4965203;28;20043;-62